createdAt,value
2022-08-16T00:03:50.367Z,99422.09
2022-08-16T00:08:46.714Z,99410.22
2022-08-16T00:13:53.918Z,99404.69
2022-08-16T00:18:51.384Z,99406.94
2022-08-16T00:23:48.876Z,99409.75
2022-08-16T00:28:45.443Z,99414.66
2022-08-16T00:33:42.520Z,99412.19
2022-08-16T00:38:46.704Z,99423.16
2022-08-16T00:43:44.951Z,99415.03
2022-08-16T00:48:45.732Z,99415.34
2022-08-16T00:53:42.166Z,99436.09
2022-08-16T00:58:46.139Z,99431.19
2022-08-16T01:03:47.845Z,99436.78
2022-08-16T01:08:50.204Z,99433.81
2022-08-16T01:13:53.036Z,99443.94
2022-08-16T01:18:55.360Z,99448.31
2022-08-16T01:24:44.587Z,99449.31
2022-08-16T01:29:57.820Z,99456.28
2022-08-16T01:34:57.018Z,99448.88
2022-08-16T01:39:53.489Z,99440.69
2022-08-16T01:44:50.327Z,99446.19
2022-08-16T01:51:05.189Z,99454.94
2022-08-16T01:55:07.000Z,99456.78
2022-08-16T02:00:10.454Z,99467.91
2022-08-16T02:05:15.843Z,99455.50
2022-08-16T02:10:12.636Z,99460.59
2022-08-16T02:15:09.468Z,99465.50
2022-08-16T02:20:11.584Z,99453.28
2022-08-16T02:25:14.658Z,99456.16
2022-08-16T02:30:36.648Z,99452.09
2022-08-16T02:35:54.105Z,99456.16
2022-08-16T02:40:54.382Z,99452.16
2022-08-16T02:45:51.076Z,99467.91
2022-08-16T02:51:03.153Z,99460.22
2022-08-16T02:56:05.292Z,99457.63
2022-08-16T03:01:07.070Z,99464.03
2022-08-16T03:06:04.232Z,99457.25
2022-08-16T03:11:21.952Z,99449.19
2022-08-16T03:16:38.145Z,99445.41
2022-08-16T03:21:37.885Z,99453.63
2022-08-16T03:26:35.131Z,99448.34
2022-08-16T03:31:34.824Z,99452.72
2022-08-16T03:36:36.971Z,99450.03
2022-08-16T03:41:50.715Z,99448.22
2022-08-16T03:46:50.170Z,99451.94
2022-08-16T03:51:47.679Z,99452.38
2022-08-16T03:56:56.984Z,99449.47
2022-08-16T04:01:54.728Z,99448.72
2022-08-16T04:06:51.274Z,99445.38
2022-08-16T04:11:47.956Z,99462.19
2022-08-16T04:16:48.598Z,99461.81
2022-08-16T04:21:47.782Z,99471.97
2022-08-16T04:26:45.981Z,99475.63
2022-08-16T04:31:43.756Z,99471.81
2022-08-16T04:36:40.255Z,99477.94
2022-08-16T04:41:37.481Z,99493.09
2022-08-16T04:47:00.955Z,99499.41
2022-08-16T04:51:53.598Z,99494.34
2022-08-16T04:56:52.119Z,99507.41
2022-08-16T05:01:58.609Z,99501.69
2022-08-16T05:06:55.835Z,99505.25
2022-08-16T05:11:52.259Z,99501.84
2022-08-16T05:16:53.628Z,99501.00
2022-08-16T05:21:51.558Z,99511.44
2022-08-16T05:26:51.247Z,99517.63
2022-08-16T05:31:53.255Z,99513.44
2022-08-16T05:36:51.526Z,99493.94
2022-08-16T05:41:47.889Z,99503.09
2022-08-16T05:46:45.617Z,99486.00
2022-08-16T05:51:46.400Z,99475.47
2022-08-16T05:56:45.954Z,99471.88
2022-08-16T06:01:46.707Z,99476.19
2022-08-16T06:06:56.788Z,99482.03
2022-08-16T06:11:53.725Z,99495.19
2022-08-16T06:16:50.773Z,99498.38
2022-08-16T06:21:55.235Z,99512.28
2022-08-16T06:26:57.965Z,99516.00
2022-08-16T06:31:54.717Z,99508.88
2022-08-16T06:36:59.597Z,99515.50
2022-08-16T06:41:57.063Z,99520.41
2022-08-16T06:46:54.244Z,99508.53
2022-08-16T06:51:50.673Z,99514.25
2022-08-16T06:56:53.953Z,99518.19
2022-08-16T07:01:54.870Z,99524.50
2022-08-16T07:06:51.744Z,99527.09
2022-08-16T07:11:51.525Z,99543.22
2022-08-16T07:16:48.759Z,99550.75
2022-08-16T07:21:59.568Z,99547.63
2022-08-16T07:26:56.550Z,99556.50
2022-08-16T07:31:53.949Z,99551.97
2022-08-16T07:36:57.829Z,99548.75
2022-08-16T07:41:54.702Z,99550.78
2022-08-16T07:46:55.441Z,99561.72
2022-08-16T07:51:54.346Z,99563.84
2022-08-16T07:56:53.128Z,99558.22
2022-08-16T08:01:53.091Z,99566.34
2022-08-16T08:06:51.125Z,99574.50
2022-08-16T08:12:00.925Z,99578.84
2022-08-16T08:16:58.996Z,99585.06
2022-08-16T08:22:00.276Z,99591.63
2022-08-16T08:26:59.133Z,99585.38
2022-08-16T08:32:57.998Z,99583.97
2022-08-16T08:37:22.555Z,99587.25
2022-08-16T08:42:25.038Z,99596.25
2022-08-16T08:47:23.384Z,99599.97
2022-08-16T08:52:34.256Z,99614.16
2022-08-16T08:57:32.274Z,99611.69
2022-08-16T09:02:29.277Z,99609.78
2022-08-16T09:07:25.669Z,99604.28
2022-08-16T09:12:34.996Z,99601.56
2022-08-16T09:17:49.212Z,99614.31
2022-08-16T09:22:52.275Z,99613.81
2022-08-16T09:27:56.878Z,99614.34
2022-08-16T09:32:54.949Z,99615.38
2022-08-16T09:38:00.874Z,99612.41
2022-08-16T09:43:05.868Z,99610.97
2022-08-16T09:48:02.382Z,99605.09
2022-08-16T09:52:59.559Z,99611.44
2022-08-16T09:57:57.551Z,99604.91
2022-08-16T10:02:54.389Z,99609.19
2022-08-16T10:07:55.879Z,99612.41
2022-08-16T10:13:11.539Z,99621.47
2022-08-16T10:18:56.058Z,99617.78
2022-08-16T10:23:28.707Z,99618.25
2022-08-16T10:28:28.808Z,99613.19
2022-08-16T10:33:29.458Z,99626.06
2022-08-16T10:38:27.402Z,99616.16
2022-08-16T10:43:24.172Z,99622.91
2022-08-16T10:48:27.992Z,99622.50
2022-08-16T10:53:32.937Z,99615.94
2022-08-16T10:58:34.093Z,99613.41
2022-08-16T11:03:42.166Z,99618.56
2022-08-16T11:08:45.301Z,99609.41
2022-08-16T11:14:06.087Z,99623.19
2022-08-16T11:19:06.349Z,99627.25
2022-08-16T11:24:39.950Z,99618.06
2022-08-16T11:29:26.768Z,99615.34
2022-08-16T11:34:23.272Z,99622.13
2022-08-16T11:39:21.577Z,99623.06
2022-08-16T11:44:20.423Z,99627.13
2022-08-16T11:49:34.297Z,99625.09
2022-08-16T11:54:36.146Z,99631.50
2022-08-16T11:59:33.860Z,99628.56
2022-08-16T12:04:34.112Z,99624.28
2022-08-16T12:09:30.875Z,99635.81
2022-08-16T12:14:28.168Z,99629.13
2022-08-16T12:19:33.807Z,99627.81
2022-08-16T12:24:31.736Z,99635.06
2022-08-16T12:29:29.427Z,99623.22
2022-08-16T12:34:29.148Z,99627.66
2022-08-16T12:39:28.857Z,99625.91
2022-08-16T12:44:26.336Z,99630.34
2022-08-16T12:49:27.600Z,99632.13
2022-08-16T12:54:26.733Z,99632.84
2022-08-16T12:59:23.533Z,99635.16
2022-08-16T13:04:21.242Z,99626.25
2022-08-16T13:09:26.647Z,99619.31
2022-08-16T13:14:32.295Z,99628.13
2022-08-16T13:19:55.969Z,99615.25
2022-08-16T13:24:46.081Z,99620.19
2022-08-16T13:29:43.864Z,99619.13
2022-08-16T13:34:40.677Z,99620.97
2022-08-16T13:39:38.274Z,99608.31
2022-08-16T13:44:56.092Z,99610.94
2022-08-16T13:49:53.539Z,99603.84
2022-08-16T13:54:50.577Z,99614.03
2022-08-16T13:59:50.158Z,99613.97
2022-08-16T14:04:47.741Z,99607.69
2022-08-16T14:10:01.307Z,99609.19
2022-08-16T14:15:01.569Z,99594.75
2022-08-16T14:19:59.978Z,99594.09
2022-08-16T14:24:58.607Z,99590.31
2022-08-16T14:29:57.085Z,99588.06
2022-08-16T14:34:55.144Z,99593.19
2022-08-16T14:39:52.937Z,99598.22
2022-08-16T14:44:50.223Z,99595.22
2022-08-16T14:49:46.581Z,99590.81
2022-08-16T14:54:45.710Z,99587.03
2022-08-16T14:59:45.514Z,99599.78
2022-08-16T15:04:47.952Z,99594.03
2022-08-16T15:09:59.865Z,99596.38
2022-08-16T15:14:58.120Z,99600.22
2022-08-16T15:19:56.062Z,99605.00
2022-08-16T15:24:58.723Z,99598.25
2022-08-16T15:29:55.677Z,99599.13
2022-08-16T15:34:52.429Z,99600.59
2022-08-16T15:40:00.438Z,99599.47
2022-08-16T15:44:58.594Z,99601.50
2022-08-16T15:49:56.071Z,99596.63
2022-08-16T15:54:55.569Z,99607.75
2022-08-16T15:59:59.035Z,99606.75
2022-08-16T16:05:11.043Z,99603.25
2022-08-16T16:10:13.270Z,99605.25
2022-08-16T16:15:09.998Z,99609.25
2022-08-16T16:20:13.803Z,99611.13
2022-08-16T16:25:11.705Z,99608.03
2022-08-16T16:30:33.128Z,99610.19
2022-08-16T16:35:32.736Z,99619.81
2022-08-16T16:40:32.631Z,99621.25
2022-08-16T16:45:34.716Z,99617.72
2022-08-16T16:50:33.371Z,99621.91
2022-08-16T16:55:34.689Z,99625.09
2022-08-16T17:00:37.919Z,99628.59
2022-08-16T17:05:34.931Z,99629.59
2022-08-16T17:10:46.185Z,99626.09
2022-08-16T17:15:46.066Z,99630.41
2022-08-16T17:20:48.971Z,99618.66
2022-08-16T17:25:45.480Z,99631.44
2022-08-16T17:30:50.218Z,99617.06
2022-08-16T17:35:55.208Z,99635.72
2022-08-16T17:40:58.834Z,99634.22
2022-08-16T17:45:56.443Z,99644.91
2022-08-16T17:50:54.510Z,99649.75
2022-08-16T17:55:52.225Z,99650.63
2022-08-16T18:00:48.802Z,99644.47
2022-08-16T18:05:47.588Z,99655.09
2022-08-16T18:10:44.011Z,99655.25
2022-08-16T18:15:43.133Z,99657.59
2022-08-16T18:20:57.932Z,99659.34
2022-08-16T18:25:57.451Z,99667.81
2022-08-16T18:31:00.288Z,99668.47
2022-08-16T18:35:57.991Z,99670.34
2022-08-16T18:40:54.689Z,99676.16
2022-08-16T18:45:54.023Z,99683.63
2022-08-16T18:50:59.129Z,99678.75
2022-08-16T18:56:03.506Z,99680.75
2022-08-16T19:00:59.925Z,99682.97
2022-08-16T19:06:00.629Z,99690.25
2022-08-16T19:10:57.077Z,99696.00
2022-08-16T19:15:55.874Z,99704.69
2022-08-16T19:20:52.993Z,99707.56
2022-08-16T19:25:54.392Z,99702.09
2022-08-16T19:30:51.178Z,99713.53
2022-08-16T19:35:47.566Z,99709.88
2022-08-16T19:40:44.014Z,99718.94
2022-08-16T19:45:45.808Z,99726.69
2022-08-16T19:50:42.574Z,99722.94
2022-08-16T19:55:39.195Z,99728.78
2022-08-16T20:00:37.259Z,99732.13
2022-08-16T20:05:34.131Z,99737.13
2022-08-16T20:10:30.673Z,99740.50
2022-08-16T20:15:31.093Z,99736.31
2022-08-16T20:20:28.499Z,99739.44
2022-08-16T20:25:31.040Z,99744.25
2022-08-16T20:30:29.744Z,99743.19
2022-08-16T20:35:27.824Z,99744.00
2022-08-16T20:40:34.089Z,99751.28
2022-08-16T20:45:31.670Z,99756.03
2022-08-16T20:50:28.558Z,99753.31
2022-08-16T20:55:26.199Z,99759.53
2022-08-16T21:00:25.284Z,99754.50
2022-08-16T21:05:25.884Z,99760.94
2022-08-16T21:10:27.652Z,99762.53
2022-08-16T21:15:26.632Z,99767.69
2022-08-16T21:20:25.978Z,99774.69
2022-08-16T21:25:23.645Z,99774.25
2022-08-16T21:30:23.989Z,99774.59
2022-08-16T21:35:26.622Z,99766.38
2022-08-16T21:40:24.322Z,99760.25
2022-08-16T21:45:21.269Z,99765.16
2022-08-16T21:50:17.688Z,99769.44
2022-08-16T21:55:16.458Z,99778.44
2022-08-16T22:00:14.383Z,99777.34
2022-08-16T22:05:10.831Z,99777.47
2022-08-16T22:11:06.603Z,99778.88
2022-08-16T22:15:25.614Z,99775.88
2022-08-16T22:20:24.493Z,99774.72
2022-08-16T22:25:21.845Z,99776.97
2022-08-16T22:30:18.351Z,99777.25
2022-08-16T22:35:15.279Z,99778.03
2022-08-16T22:40:12.731Z,99777.53
2022-08-16T22:45:09.818Z,99778.91
2022-08-16T22:50:09.660Z,99771.19
2022-08-16T22:55:06.471Z,99765.63
2022-08-16T23:00:05.969Z,99764.44
2022-08-16T23:05:02.393Z,99762.56
2022-08-16T23:10:01.458Z,99763.03
2022-08-16T23:15:02.737Z,99766.09
2022-08-16T23:20:00.236Z,99760.63
2022-08-16T23:24:57.736Z,99756.72
2022-08-16T23:29:54.052Z,99761.88
2022-08-16T23:34:50.486Z,99758.22
2022-08-16T23:39:49.477Z,99767.16
2022-08-16T23:44:58.294Z,99752.19
2022-08-16T23:49:59.977Z,99751.72
2022-08-16T23:55:03.750Z,99752.88
